sensor_id;sensor_type;location;lat;lon;timestamp;temperature;humidity
18998;DHT22;9632;51.018;4.284;2022-10-13T00:00:19;14.90;99.90
18998;DHT22;9632;51.018;4.284;2022-10-13T00:02:45;14.90;99.90
18998;DHT22;9632;51.018;4.284;2022-10-13T00:05:10;15.00;99.90
18998;DHT22;9632;51.018;4.284;2022-10-13T00:07:36;15.00;99.90
18998;DHT22;9632;51.018;4.284;2022-10-13T00:10:02;14.90;99.90
18998;DHT22;9632;51.018;4.284;2022-10-13T00:12:27;14.90;99.90
18998;DHT22;9632;51.018;4.284;2022-10-13T00:14:53;14.90;99.90
18998;DHT22;9632;51.018;4.284;2022-10-13T00:17:18;14.90;99.90
18998;DHT22;9632;51.018;4.284;2022-10-13T00:19:44;14.90;99.90
18998;DHT22;9632;51.018;4.284;2022-10-13T00:22:10;15.00;99.90
18998;DHT22;9632;51.018;4.284;2022-10-13T00:24:35;15.00;99.90
18998;DHT22;9632;51.018;4.284;2022-10-13T00:27:01;15.00;99.90
18998;DHT22;9632;51.018;4.284;2022-10-13T00:29:26;15.00;99.90
18998;DHT22;9632;51.018;4.284;2022-10-13T00:31:52;15.00;99.90
18998;DHT22;9632;51.018;4.284;2022-10-13T00:34:18;15.00;99.90
18998;DHT22;9632;51.018;4.284;2022-10-13T00:36:43;15.00;99.90
18998;DHT22;9632;51.018;4.284;2022-10-13T00:39:09;15.00;99.90
18998;DHT22;9632;51.018;4.284;2022-10-13T00:41:35;15.00;99.90
18998;DHT22;9632;51.018;4.284;2022-10-13T00:44:01;15.00;99.90
18998;DHT22;9632;51.018;4.284;2022-10-13T00:46:35;15.00;99.90
18998;DHT22;9632;51.018;4.284;2022-10-13T00:49:07;15.10;99.90
18998;DHT22;9632;51.018;4.284;2022-10-13T00:51:38;15.00;99.90
18998;DHT22;9632;51.018;4.284;2022-10-13T00:54:05;15.00;99.90
18998;DHT22;9632;51.018;4.284;2022-10-13T00:56:31;15.00;99.90
18998;DHT22;9632;51.018;4.284;2022-10-13T00:58:59;15.00;99.90
18998;DHT22;9632;51.018;4.284;2022-10-13T01:01:25;14.90;99.90
18998;DHT22;9632;51.018;4.284;2022-10-13T01:03:50;14.90;99.90
18998;DHT22;9632;51.018;4.284;2022-10-13T01:06:18;14.90;99.90
18998;DHT22;9632;51.018;4.284;2022-10-13T01:08:43;14.90;99.90
18998;DHT22;9632;51.018;4.284;2022-10-13T01:11:50;14.80;99.90
18998;DHT22;9632;51.018;4.284;2022-10-13T01:14:35;14.90;99.90
18998;DHT22;9632;51.018;4.284;2022-10-13T01:25:11;14.80;99.90
18998;DHT22;9632;51.018;4.284;2022-10-13T01:30:23;14.70;99.90
18998;DHT22;9632;51.018;4.284;2022-10-13T01:38:42;14.70;99.90
18998;DHT22;9632;51.018;4.284;2022-10-13T01:41:33;14.70;99.90
18998;DHT22;9632;51.018;4.284;2022-10-13T01:44:07;14.80;99.90
18998;DHT22;9632;51.018;4.284;2022-10-13T01:46:37;14.80;99.90
18998;DHT22;9632;51.018;4.284;2022-10-13T01:49:09;14.80;99.90
18998;DHT22;9632;51.018;4.284;2022-10-13T01:51:36;14.80;99.90
18998;DHT22;9632;51.018;4.284;2022-10-13T01:54:02;14.80;99.90
18998;DHT22;9632;51.018;4.284;2022-10-13T01:56:27;14.80;99.90
18998;DHT22;9632;51.018;4.284;2022-10-13T01:58:55;14.70;99.90
18998;DHT22;9632;51.018;4.284;2022-10-13T02:07:12;14.80;99.90
18998;DHT22;9632;51.018;4.284;2022-10-13T02:09:43;14.80;99.90
18998;DHT22;9632;51.018;4.284;2022-10-13T02:15:04;14.80;99.90
18998;DHT22;9632;51.018;4.284;2022-10-13T02:17:31;14.80;99.90
18998;DHT22;9632;51.018;4.284;2022-10-13T02:19:57;14.90;99.90
18998;DHT22;9632;51.018;4.284;2022-10-13T02:22:28;14.90;99.90
18998;DHT22;9632;51.018;4.284;2022-10-13T02:24:54;14.90;99.90
18998;DHT22;9632;51.018;4.284;2022-10-13T02:27:21;14.90;99.90
18998;DHT22;9632;51.018;4.284;2022-10-13T02:29:55;14.90;99.90
18998;DHT22;9632;51.018;4.284;2022-10-13T02:32:22;14.90;99.90
18998;DHT22;9632;51.018;4.284;2022-10-13T02:34:48;14.90;99.90
18998;DHT22;9632;51.018;4.284;2022-10-13T02:37:13;14.90;99.90
18998;DHT22;9632;51.018;4.284;2022-10-13T02:39:39;14.90;99.90
18998;DHT22;9632;51.018;4.284;2022-10-13T02:42:05;14.90;99.90
18998;DHT22;9632;51.018;4.284;2022-10-13T02:44:30;14.90;99.90
18998;DHT22;9632;51.018;4.284;2022-10-13T02:46:56;14.80;99.90
18998;DHT22;9632;51.018;4.284;2022-10-13T02:49:21;14.90;99.90
18998;DHT22;9632;51.018;4.284;2022-10-13T02:51:47;14.90;99.90
18998;DHT22;9632;51.018;4.284;2022-10-13T02:54:13;14.90;99.90
18998;DHT22;9632;51.018;4.284;2022-10-13T02:56:38;14.90;99.90
18998;DHT22;9632;51.018;4.284;2022-10-13T02:59:04;15.00;99.90
18998;DHT22;9632;51.018;4.284;2022-10-13T03:01:30;14.90;99.90
18998;DHT22;9632;51.018;4.284;2022-10-13T03:03:55;14.90;99.90
18998;DHT22;9632;51.018;4.284;2022-10-13T03:06:21;14.90;99.90
18998;DHT22;9632;51.018;4.284;2022-10-13T03:08:47;14.90;99.90
18998;DHT22;9632;51.018;4.284;2022-10-13T03:11:12;14.90;99.90
18998;DHT22;9632;51.018;4.284;2022-10-13T03:13:38;14.90;99.90
18998;DHT22;9632;51.018;4.284;2022-10-13T03:16:04;14.90;99.90
18998;DHT22;9632;51.018;4.284;2022-10-13T03:18:30;14.80;99.90
18998;DHT22;9632;51.018;4.284;2022-10-13T03:21:02;14.80;99.90
18998;DHT22;9632;51.018;4.284;2022-10-13T03:23:29;14.80;99.90
18998;DHT22;9632;51.018;4.284;2022-10-13T03:25:54;14.70;99.90
18998;DHT22;9632;51.018;4.284;2022-10-13T03:28:20;14.70;99.90
18998;DHT22;9632;51.018;4.284;2022-10-13T03:30:46;14.70;99.90
18998;DHT22;9632;51.018;4.284;2022-10-13T03:33:12;14.80;99.90
18998;DHT22;9632;51.018;4.284;2022-10-13T03:35:37;14.80;99.90
18998;DHT22;9632;51.018;4.284;2022-10-13T03:38:03;14.80;99.90
18998;DHT22;9632;51.018;4.284;2022-10-13T03:40:28;14.70;99.90
18998;DHT22;9632;51.018;4.284;2022-10-13T03:42:54;14.70;99.90
18998;DHT22;9632;51.018;4.284;2022-10-13T03:45:20;14.70;99.90
18998;DHT22;9632;51.018;4.284;2022-10-13T03:47:45;14.70;99.90
18998;DHT22;9632;51.018;4.284;2022-10-13T03:50:11;14.70;99.90
18998;DHT22;9632;51.018;4.284;2022-10-13T03:52:37;14.50;99.90
18998;DHT22;9632;51.018;4.284;2022-10-13T03:55:03;14.50;99.90
18998;DHT22;9632;51.018;4.284;2022-10-13T03:57:29;14.60;99.90
18998;DHT22;9632;51.018;4.284;2022-10-13T03:59:55;14.60;99.90
18998;DHT22;9632;51.018;4.284;2022-10-13T04:02:22;14.60;99.90
18998;DHT22;9632;51.018;4.284;2022-10-13T04:04:48;14.60;99.90
18998;DHT22;9632;51.018;4.284;2022-10-13T04:07:13;14.60;99.90
18998;DHT22;9632;51.018;4.284;2022-10-13T04:09:39;14.70;99.90
18998;DHT22;9632;51.018;4.284;2022-10-13T04:12:05;14.70;99.90
18998;DHT22;9632;51.018;4.284;2022-10-13T04:14:30;14.70;99.90
18998;DHT22;9632;51.018;4.284;2022-10-13T04:16:56;14.70;99.90
18998;DHT22;9632;51.018;4.284;2022-10-13T04:19:22;14.70;99.90
18998;DHT22;9632;51.018;4.284;2022-10-13T04:21:47;14.80;99.90
18998;DHT22;9632;51.018;4.284;2022-10-13T04:24:13;14.80;99.90
18998;DHT22;9632;51.018;4.284;2022-10-13T04:26:39;14.70;99.90
18998;DHT22;9632;51.018;4.284;2022-10-13T04:29:07;14.80;99.90
18998;DHT22;9632;51.018;4.284;2022-10-13T04:31:33;14.70;99.90
18998;DHT22;9632;51.018;4.284;2022-10-13T04:33:59;14.80;99.90
18998;DHT22;9632;51.018;4.284;2022-10-13T04:36:26;14.70;99.90
18998;DHT22;9632;51.018;4.284;2022-10-13T04:38:52;14.60;99.90
18998;DHT22;9632;51.018;4.284;2022-10-13T04:41:19;14.60;99.90
18998;DHT22;9632;51.018;4.284;2022-10-13T04:43:48;14.70;99.90
18998;DHT22;9632;51.018;4.284;2022-10-13T04:46:23;14.70;99.90
18998;DHT22;9632;51.018;4.284;2022-10-13T04:48:50;14.70;99.90
18998;DHT22;9632;51.018;4.284;2022-10-13T04:51:21;14.70;99.90
18998;DHT22;9632;51.018;4.284;2022-10-13T04:53:53;14.70;99.90
18998;DHT22;9632;51.018;4.284;2022-10-13T04:56:18;14.70;99.90
18998;DHT22;9632;51.018;4.284;2022-10-13T04:58:45;14.70;99.90
18998;DHT22;9632;51.018;4.284;2022-10-13T05:01:16;14.60;99.90
18998;DHT22;9632;51.018;4.284;2022-10-13T05:03:42;14.60;99.90
18998;DHT22;9632;51.018;4.284;2022-10-13T05:06:20;14.60;99.90
18998;DHT22;9632;51.018;4.284;2022-10-13T05:08:46;14.60;99.90
18998;DHT22;9632;51.018;4.284;2022-10-13T05:11:11;14.70;99.90
18998;DHT22;9632;51.018;4.284;2022-10-13T05:13:37;14.60;99.90
18998;DHT22;9632;51.018;4.284;2022-10-13T05:16:11;14.60;99.90
18998;DHT22;9632;51.018;4.284;2022-10-13T05:18:38;14.60;99.90
18998;DHT22;9632;51.018;4.284;2022-10-13T05:21:11;14.60;99.90
18998;DHT22;9632;51.018;4.284;2022-10-13T05:23:38;14.60;99.90
18998;DHT22;9632;51.018;4.284;2022-10-13T05:26:06;14.50;99.90
18998;DHT22;9632;51.018;4.284;2022-10-13T05:28:32;14.50;99.90
18998;DHT22;9632;51.018;4.284;2022-10-13T05:31:11;14.50;99.90
18998;DHT22;9632;51.018;4.284;2022-10-13T05:33:37;14.70;99.90
18998;DHT22;9632;51.018;4.284;2022-10-13T05:36:11;14.60;99.90
18998;DHT22;9632;51.018;4.284;2022-10-13T05:38:37;14.60;99.90
18998;DHT22;9632;51.018;4.284;2022-10-13T05:41:10;14.70;99.90
18998;DHT22;9632;51.018;4.284;2022-10-13T05:43:38;14.70;99.90
18998;DHT22;9632;51.018;4.284;2022-10-13T05:46:04;14.70;99.90
18998;DHT22;9632;51.018;4.284;2022-10-13T05:48:31;14.70;99.90
18998;DHT22;9632;51.018;4.284;2022-10-13T05:50:59;14.70;99.90
18998;DHT22;9632;51.018;4.284;2022-10-13T05:53:28;14.60;99.90
18998;DHT22;9632;51.018;4.284;2022-10-13T05:55:55;14.60;99.90
18998;DHT22;9632;51.018;4.284;2022-10-13T05:58:22;14.70;99.90
18998;DHT22;9632;51.018;4.284;2022-10-13T06:00:48;14.60;99.90
18998;DHT22;9632;51.018;4.284;2022-10-13T06:03:18;14.50;99.90
18998;DHT22;9632;51.018;4.284;2022-10-13T06:05:45;14.50;99.90
18998;DHT22;9632;51.018;4.284;2022-10-13T06:08:15;14.50;99.90
18998;DHT22;9632;51.018;4.284;2022-10-13T06:10:41;14.60;99.90
18998;DHT22;9632;51.018;4.284;2022-10-13T06:13:08;14.70;99.90
18998;DHT22;9632;51.018;4.284;2022-10-13T06:15:34;14.70;99.90
18998;DHT22;9632;51.018;4.284;2022-10-13T06:17:59;14.70;99.90
18998;DHT22;9632;51.018;4.284;2022-10-13T06:20:25;14.70;99.90
18998;DHT22;9632;51.018;4.284;2022-10-13T06:22:56;14.70;99.90
18998;DHT22;9632;51.018;4.284;2022-10-13T06:25:22;14.70;99.90
18998;DHT22;9632;51.018;4.284;2022-10-13T06:27:47;14.70;99.90
18998;DHT22;9632;51.018;4.284;2022-10-13T06:30:13;14.70;99.90
18998;DHT22;9632;51.018;4.284;2022-10-13T06:32:39;14.60;99.90
18998;DHT22;9632;51.018;4.284;2022-10-13T06:35:05;14.70;99.90
18998;DHT22;9632;51.018;4.284;2022-10-13T06:37:30;14.60;99.90
18998;DHT22;9632;51.018;4.284;2022-10-13T06:39:56;14.70;99.90
18998;DHT22;9632;51.018;4.284;2022-10-13T06:42:22;14.60;99.90
18998;DHT22;9632;51.018;4.284;2022-10-13T06:44:47;14.60;99.90
18998;DHT22;9632;51.018;4.284;2022-10-13T06:47:13;14.70;99.90
18998;DHT22;9632;51.018;4.284;2022-10-13T06:49:39;14.60;99.90
18998;DHT22;9632;51.018;4.284;2022-10-13T06:52:04;14.60;99.90
18998;DHT22;9632;51.018;4.284;2022-10-13T06:54:30;14.60;99.90
18998;DHT22;9632;51.018;4.284;2022-10-13T06:56:56;14.50;99.90
18998;DHT22;9632;51.018;4.284;2022-10-13T06:59:21;14.50;99.90
18998;DHT22;9632;51.018;4.284;2022-10-13T07:01:48;14.60;99.90
18998;DHT22;9632;51.018;4.284;2022-10-13T07:04:14;14.60;99.90
18998;DHT22;9632;51.018;4.284;2022-10-13T07:06:40;14.70;99.90
18998;DHT22;9632;51.018;4.284;2022-10-13T07:09:06;14.60;99.90
18998;DHT22;9632;51.018;4.284;2022-10-13T07:11:33;14.60;99.90
18998;DHT22;9632;51.018;4.284;2022-10-13T07:13:59;14.50;99.90
18998;DHT22;9632;51.018;4.284;2022-10-13T07:16:25;14.50;99.90
18998;DHT22;9632;51.018;4.284;2022-10-13T07:18:50;14.50;99.90
18998;DHT22;9632;51.018;4.284;2022-10-13T07:21:16;14.50;99.90
18998;DHT22;9632;51.018;4.284;2022-10-13T07:23:42;14.50;99.90
18998;DHT22;9632;51.018;4.284;2022-10-13T07:26:13;14.60;99.90
18998;DHT22;9632;51.018;4.284;2022-10-13T07:28:39;14.50;99.90
18998;DHT22;9632;51.018;4.284;2022-10-13T07:31:12;14.50;99.90
18998;DHT22;9632;51.018;4.284;2022-10-13T07:33:40;14.50;99.90
18998;DHT22;9632;51.018;4.284;2022-10-13T07:36:06;14.60;99.90
18998;DHT22;9632;51.018;4.284;2022-10-13T07:38:32;14.50;99.90
18998;DHT22;9632;51.018;4.284;2022-10-13T07:41:06;14.60;99.90
18998;DHT22;9632;51.018;4.284;2022-10-13T07:43:32;14.60;99.90
18998;DHT22;9632;51.018;4.284;2022-10-13T07:45:59;14.60;99.90
18998;DHT22;9632;51.018;4.284;2022-10-13T07:48:25;14.70;99.90
18998;DHT22;9632;51.018;4.284;2022-10-13T07:50:51;14.70;99.90
18998;DHT22;9632;51.018;4.284;2022-10-13T07:53:16;14.70;99.90
18998;DHT22;9632;51.018;4.284;2022-10-13T07:55:42;14.70;99.90
18998;DHT22;9632;51.018;4.284;2022-10-13T07:58:08;14.80;99.90
18998;DHT22;9632;51.018;4.284;2022-10-13T08:00:33;14.80;99.90
18998;DHT22;9632;51.018;4.284;2022-10-13T08:02:59;14.80;99.90
18998;DHT22;9632;51.018;4.284;2022-10-13T08:05:25;14.80;99.90
18998;DHT22;9632;51.018;4.284;2022-10-13T08:07:50;14.80;99.90
18998;DHT22;9632;51.018;4.284;2022-10-13T08:10:16;14.80;99.90
18998;DHT22;9632;51.018;4.284;2022-10-13T08:12:42;14.80;99.90
18998;DHT22;9632;51.018;4.284;2022-10-13T08:15:08;14.90;99.90
18998;DHT22;9632;51.018;4.284;2022-10-13T08:17:34;15.00;99.90
18998;DHT22;9632;51.018;4.284;2022-10-13T08:20:00;15.00;99.90
18998;DHT22;9632;51.018;4.284;2022-10-13T08:22:26;15.10;99.90
18998;DHT22;9632;51.018;4.284;2022-10-13T08:24:52;15.10;99.90
18998;DHT22;9632;51.018;4.284;2022-10-13T08:27:23;15.00;99.90
18998;DHT22;9632;51.018;4.284;2022-10-13T08:29:49;15.00;99.90
18998;DHT22;9632;51.018;4.284;2022-10-13T08:32:15;15.10;99.90
18998;DHT22;9632;51.018;4.284;2022-10-13T08:34:41;15.10;99.90
18998;DHT22;9632;51.018;4.284;2022-10-13T08:37:13;15.20;99.90
18998;DHT22;9632;51.018;4.284;2022-10-13T08:39:39;15.20;99.90
18998;DHT22;9632;51.018;4.284;2022-10-13T08:42:20;15.30;99.90
18998;DHT22;9632;51.018;4.284;2022-10-13T08:44:58;15.30;99.90
18998;DHT22;9632;51.018;4.284;2022-10-13T08:47:44;15.30;99.90
18998;DHT22;9632;51.018;4.284;2022-10-13T08:50:18;15.40;99.90
18998;DHT22;9632;51.018;4.284;2022-10-13T08:53:10;15.40;99.90
18998;DHT22;9632;51.018;4.284;2022-10-13T08:55:41;15.50;99.90
18998;DHT22;9632;51.018;4.284;2022-10-13T08:58:26;15.50;99.90
18998;DHT22;9632;51.018;4.284;2022-10-13T09:01:16;15.60;99.90
18998;DHT22;9632;51.018;4.284;2022-10-13T09:03:44;15.60;99.90
18998;DHT22;9632;51.018;4.284;2022-10-13T09:08:51;15.60;99.90
18998;DHT22;9632;51.018;4.284;2022-10-13T09:11:18;15.60;99.90
18998;DHT22;9632;51.018;4.284;2022-10-13T09:13:43;15.60;99.90
18998;DHT22;9632;51.018;4.284;2022-10-13T09:16:09;15.70;99.90
18998;DHT22;9632;51.018;4.284;2022-10-13T09:18:35;15.80;99.90
18998;DHT22;9632;51.018;4.284;2022-10-13T09:21:20;15.70;99.90
18998;DHT22;9632;51.018;4.284;2022-10-13T09:23:48;15.70;99.90
18998;DHT22;9632;51.018;4.284;2022-10-13T09:26:23;15.60;99.90
18998;DHT22;9632;51.018;4.284;2022-10-13T09:28:49;15.60;99.90
18998;DHT22;9632;51.018;4.284;2022-10-13T09:31:26;15.60;99.90
18998;DHT22;9632;51.018;4.284;2022-10-13T09:34:13;15.60;99.90
18998;DHT22;9632;51.018;4.284;2022-10-13T09:36:57;15.60;99.90
18998;DHT22;9632;51.018;4.284;2022-10-13T09:39:23;15.60;99.90
18998;DHT22;9632;51.018;4.284;2022-10-13T09:41:49;15.70;99.90
18998;DHT22;9632;51.018;4.284;2022-10-13T09:44:25;15.70;99.90
18998;DHT22;9632;51.018;4.284;2022-10-13T09:46:55;15.80;99.90
18998;DHT22;9632;51.018;4.284;2022-10-13T09:52:04;15.90;99.90
18998;DHT22;9632;51.018;4.284;2022-10-13T09:54:44;16.00;99.90
18998;DHT22;9632;51.018;4.284;2022-10-13T10:00:11;16.00;99.90
18998;DHT22;9632;51.018;4.284;2022-10-13T10:03:01;16.00;99.90
18998;DHT22;9632;51.018;4.284;2022-10-13T10:08:05;16.10;99.90
18998;DHT22;9632;51.018;4.284;2022-10-13T10:10:34;16.20;99.90
18998;DHT22;9632;51.018;4.284;2022-10-13T10:13:00;16.30;99.90
18998;DHT22;9632;51.018;4.284;2022-10-13T10:15:42;16.20;99.90
18998;DHT22;9632;51.018;4.284;2022-10-13T10:18:18;16.30;99.90
18998;DHT22;9632;51.018;4.284;2022-10-13T10:20:55;16.30;99.90
18998;DHT22;9632;51.018;4.284;2022-10-13T10:23:48;16.30;99.90
18998;DHT22;9632;51.018;4.284;2022-10-13T10:26:21;16.30;99.90
18998;DHT22;9632;51.018;4.284;2022-10-13T10:32:28;16.20;99.90
18998;DHT22;9632;51.018;4.284;2022-10-13T10:34:36;16.20;99.90
18998;DHT22;9632;51.018;4.284;2022-10-13T10:37:24;16.30;99.90
18998;DHT22;9632;51.018;4.284;2022-10-13T10:43:02;16.20;99.90
18998;DHT22;9632;51.018;4.284;2022-10-13T10:45:37;16.20;99.90
18998;DHT22;9632;51.018;4.284;2022-10-13T10:48:17;16.20;99.90
18998;DHT22;9632;51.018;4.284;2022-10-13T10:50:43;16.10;99.90
18998;DHT22;9632;51.018;4.284;2022-10-13T10:55:51;16.00;99.90
18998;DHT22;9632;51.018;4.284;2022-10-13T10:58:31;16.10;99.90
18998;DHT22;9632;51.018;4.284;2022-10-13T11:03:49;16.10;99.90
18998;DHT22;9632;51.018;4.284;2022-10-13T11:06:31;16.10;99.90
18998;DHT22;9632;51.018;4.284;2022-10-13T11:08:58;16.10;99.90
18998;DHT22;9632;51.018;4.284;2022-10-13T11:16:38;16.00;99.90
18998;DHT22;9632;51.018;4.284;2022-10-13T11:42:50;16.30;99.90
18998;DHT22;9632;51.018;4.284;2022-10-13T11:45:38;16.40;99.90
18998;DHT22;9632;51.018;4.284;2022-10-13T11:56:51;16.40;99.90
18998;DHT22;9632;51.018;4.284;2022-10-13T11:59:32;16.40;99.90
18998;DHT22;9632;51.018;4.284;2022-10-13T12:02:13;16.50;99.90
18998;DHT22;9632;51.018;4.284;2022-10-13T12:04:41;16.50;99.90
18998;DHT22;9632;51.018;4.284;2022-10-13T12:07:09;16.50;99.90
18998;DHT22;9632;51.018;4.284;2022-10-13T12:09:42;16.50;99.90
18998;DHT22;9632;51.018;4.284;2022-10-13T12:12:14;16.40;99.90
18998;DHT22;9632;51.018;4.284;2022-10-13T12:14:42;16.40;99.90
18998;DHT22;9632;51.018;4.284;2022-10-13T12:17:31;16.40;99.90
18998;DHT22;9632;51.018;4.284;2022-10-13T12:20:15;16.40;99.90
18998;DHT22;9632;51.018;4.284;2022-10-13T12:22:52;16.40;99.90
18998;DHT22;9632;51.018;4.284;2022-10-13T12:25:21;16.40;99.90
18998;DHT22;9632;51.018;4.284;2022-10-13T12:27:49;16.40;99.90
18998;DHT22;9632;51.018;4.284;2022-10-13T12:30:30;16.40;99.90
18998;DHT22;9632;51.018;4.284;2022-10-13T12:33:00;16.40;99.90
18998;DHT22;9632;51.018;4.284;2022-10-13T12:35:31;16.30;99.90
18998;DHT22;9632;51.018;4.284;2022-10-13T12:38:00;16.40;99.90
18998;DHT22;9632;51.018;4.284;2022-10-13T12:40:27;16.30;99.90
18998;DHT22;9632;51.018;4.284;2022-10-13T12:42:53;16.30;99.90
18998;DHT22;9632;51.018;4.284;2022-10-13T12:45:22;16.30;99.90
18998;DHT22;9632;51.018;4.284;2022-10-13T12:47:51;16.30;99.90
18998;DHT22;9632;51.018;4.284;2022-10-13T12:52:52;16.30;99.90
18998;DHT22;9632;51.018;4.284;2022-10-13T12:55:20;16.40;99.90
18998;DHT22;9632;51.018;4.284;2022-10-13T12:57:48;16.40;99.90
18998;DHT22;9632;51.018;4.284;2022-10-13T13:00:29;16.30;99.90
18998;DHT22;9632;51.018;4.284;2022-10-13T13:07:56;16.40;99.90
18998;DHT22;9632;51.018;4.284;2022-10-13T13:10:22;16.40;99.90
18998;DHT22;9632;51.018;4.284;2022-10-13T13:12:49;16.40;99.90
18998;DHT22;9632;51.018;4.284;2022-10-13T13:17:50;16.40;99.90
18998;DHT22;9632;51.018;4.284;2022-10-13T13:20:30;16.30;99.90
18998;DHT22;9632;51.018;4.284;2022-10-13T13:22:57;16.30;99.90
18998;DHT22;9632;51.018;4.284;2022-10-13T13:25:23;16.30;99.90
18998;DHT22;9632;51.018;4.284;2022-10-13T13:27:49;16.20;99.90
18998;DHT22;9632;51.018;4.284;2022-10-13T13:30:21;16.20;99.90
18998;DHT22;9632;51.018;4.284;2022-10-13T13:32:47;16.20;99.90
18998;DHT22;9632;51.018;4.284;2022-10-13T13:35:13;16.20;99.90
18998;DHT22;9632;51.018;4.284;2022-10-13T13:37:49;16.30;99.90
18998;DHT22;9632;51.018;4.284;2022-10-13T13:40:21;16.30;99.90
18998;DHT22;9632;51.018;4.284;2022-10-13T13:42:47;16.30;99.90
18998;DHT22;9632;51.018;4.284;2022-10-13T13:45:17;16.20;99.90
18998;DHT22;9632;51.018;4.284;2022-10-13T13:47:44;16.20;99.90
18998;DHT22;9632;51.018;4.284;2022-10-13T13:50:32;16.20;99.90
18998;DHT22;9632;51.018;4.284;2022-10-13T13:52:59;16.30;99.90
18998;DHT22;9632;51.018;4.284;2022-10-13T13:55:25;16.40;99.90
18998;DHT22;9632;51.018;4.284;2022-10-13T13:57:51;16.40;99.90
18998;DHT22;9632;51.018;4.284;2022-10-13T14:00:17;16.40;99.90
18998;DHT22;9632;51.018;4.284;2022-10-13T14:02:43;16.40;99.90
18998;DHT22;9632;51.018;4.284;2022-10-13T14:05:10;16.50;99.90
18998;DHT22;9632;51.018;4.284;2022-10-13T14:07:37;16.70;99.90
18998;DHT22;9632;51.018;4.284;2022-10-13T14:10:03;16.70;99.90
18998;DHT22;9632;51.018;4.284;2022-10-13T14:12:32;16.80;99.90
18998;DHT22;9632;51.018;4.284;2022-10-13T14:14:57;16.90;99.90
18998;DHT22;9632;51.018;4.284;2022-10-13T14:17:24;16.90;99.90
18998;DHT22;9632;51.018;4.284;2022-10-13T14:19:49;16.90;99.90
18998;DHT22;9632;51.018;4.284;2022-10-13T14:22:15;16.90;99.90
18998;DHT22;9632;51.018;4.284;2022-10-13T14:24:41;16.90;99.90
18998;DHT22;9632;51.018;4.284;2022-10-13T14:27:06;16.90;99.90
18998;DHT22;9632;51.018;4.284;2022-10-13T14:29:35;16.90;99.90
18998;DHT22;9632;51.018;4.284;2022-10-13T14:32:01;16.80;99.90
18998;DHT22;9632;51.018;4.284;2022-10-13T14:34:27;16.80;99.90
18998;DHT22;9632;51.018;4.284;2022-10-13T14:36:53;16.80;99.90
18998;DHT22;9632;51.018;4.284;2022-10-13T14:39:18;16.80;99.90
18998;DHT22;9632;51.018;4.284;2022-10-13T14:41:44;16.80;99.90
18998;DHT22;9632;51.018;4.284;2022-10-13T14:44:11;16.80;99.90
18998;DHT22;9632;51.018;4.284;2022-10-13T14:46:38;16.80;99.90
18998;DHT22;9632;51.018;4.284;2022-10-13T14:49:04;16.80;99.90
18998;DHT22;9632;51.018;4.284;2022-10-13T14:51:31;16.70;99.90
18998;DHT22;9632;51.018;4.284;2022-10-13T14:53:57;16.70;99.90
18998;DHT22;9632;51.018;4.284;2022-10-13T14:56:25;16.70;99.90
18998;DHT22;9632;51.018;4.284;2022-10-13T14:58:54;16.70;99.90
18998;DHT22;9632;51.018;4.284;2022-10-13T15:01:20;16.70;99.90
18998;DHT22;9632;51.018;4.284;2022-10-13T15:03:47;16.70;99.90
18998;DHT22;9632;51.018;4.284;2022-10-13T15:06:18;16.70;99.90
18998;DHT22;9632;51.018;4.284;2022-10-13T15:08:45;16.70;99.90
18998;DHT22;9632;51.018;4.284;2022-10-13T15:11:12;16.70;99.90
18998;DHT22;9632;51.018;4.284;2022-10-13T15:13:38;16.70;99.90
18998;DHT22;9632;51.018;4.284;2022-10-13T15:16:05;16.70;99.90
18998;DHT22;9632;51.018;4.284;2022-10-13T15:18:31;16.70;99.90
18998;DHT22;9632;51.018;4.284;2022-10-13T15:20:58;16.70;99.90
18998;DHT22;9632;51.018;4.284;2022-10-13T15:23:24;16.70;99.90
18998;DHT22;9632;51.018;4.284;2022-10-13T15:25:54;16.70;99.90
18998;DHT22;9632;51.018;4.284;2022-10-13T15:28:25;16.80;99.90
18998;DHT22;9632;51.018;4.284;2022-10-13T15:30:51;16.80;99.90
18998;DHT22;9632;51.018;4.284;2022-10-13T15:33:17;16.80;99.90
18998;DHT22;9632;51.018;4.284;2022-10-13T15:35:47;16.80;99.90
18998;DHT22;9632;51.018;4.284;2022-10-13T15:38:13;16.80;99.90
18998;DHT22;9632;51.018;4.284;2022-10-13T15:40:40;16.80;99.90
18998;DHT22;9632;51.018;4.284;2022-10-13T15:43:06;16.70;99.90
18998;DHT22;9632;51.018;4.284;2022-10-13T15:45:32;16.70;99.90
18998;DHT22;9632;51.018;4.284;2022-10-13T15:47:58;16.60;99.90
18998;DHT22;9632;51.018;4.284;2022-10-13T15:50:24;16.70;99.90
18998;DHT22;9632;51.018;4.284;2022-10-13T15:52:50;16.60;99.90
18998;DHT22;9632;51.018;4.284;2022-10-13T15:55:16;16.60;99.90
18998;DHT22;9632;51.018;4.284;2022-10-13T15:57:42;16.70;99.90
18998;DHT22;9632;51.018;4.284;2022-10-13T16:00:10;16.70;99.90
18998;DHT22;9632;51.018;4.284;2022-10-13T16:02:36;16.70;99.90
18998;DHT22;9632;51.018;4.284;2022-10-13T16:05:02;16.60;99.90
18998;DHT22;9632;51.018;4.284;2022-10-13T16:07:33;16.60;99.90
18998;DHT22;9632;51.018;4.284;2022-10-13T16:09:59;16.60;99.90
18998;DHT22;9632;51.018;4.284;2022-10-13T16:12:27;16.60;99.90
18998;DHT22;9632;51.018;4.284;2022-10-13T16:14:53;16.60;99.90
18998;DHT22;9632;51.018;4.284;2022-10-13T16:17:19;16.60;99.90
18998;DHT22;9632;51.018;4.284;2022-10-13T16:19:44;16.50;99.90
18998;DHT22;9632;51.018;4.284;2022-10-13T16:22:10;16.50;99.90
18998;DHT22;9632;51.018;4.284;2022-10-13T16:24:35;16.50;99.90
18998;DHT22;9632;51.018;4.284;2022-10-13T16:27:01;16.50;99.90
18998;DHT22;9632;51.018;4.284;2022-10-13T16:29:27;16.40;99.90
18998;DHT22;9632;51.018;4.284;2022-10-13T16:31:53;16.40;99.90
18998;DHT22;9632;51.018;4.284;2022-10-13T16:34:19;16.40;99.90
18998;DHT22;9632;51.018;4.284;2022-10-13T16:36:44;16.40;99.90
18998;DHT22;9632;51.018;4.284;2022-10-13T16:39:10;16.50;99.90
18998;DHT22;9632;51.018;4.284;2022-10-13T16:41:36;16.40;99.90
18998;DHT22;9632;51.018;4.284;2022-10-13T16:44:03;16.40;99.90
18998;DHT22;9632;51.018;4.284;2022-10-13T16:46:28;16.30;99.90
18998;DHT22;9632;51.018;4.284;2022-10-13T16:48:54;16.30;99.90
18998;DHT22;9632;51.018;4.284;2022-10-13T16:51:22;16.30;99.90
18998;DHT22;9632;51.018;4.284;2022-10-13T16:53:50;16.30;99.90
18998;DHT22;9632;51.018;4.284;2022-10-13T16:56:16;16.30;99.90
18998;DHT22;9632;51.018;4.284;2022-10-13T16:59:07;16.30;99.90
18998;DHT22;9632;51.018;4.284;2022-10-13T17:01:34;16.30;99.90
18998;DHT22;9632;51.018;4.284;2022-10-13T17:04:02;16.30;99.90
18998;DHT22;9632;51.018;4.284;2022-10-13T17:06:28;16.20;99.90
18998;DHT22;9632;51.018;4.284;2022-10-13T17:08:56;16.30;99.90
18998;DHT22;9632;51.018;4.284;2022-10-13T17:11:24;16.20;99.90
18998;DHT22;9632;51.018;4.284;2022-10-13T17:13:50;16.30;99.90
18998;DHT22;9632;51.018;4.284;2022-10-13T17:16:17;16.30;99.90
18998;DHT22;9632;51.018;4.284;2022-10-13T17:18:42;16.20;99.90
18998;DHT22;9632;51.018;4.284;2022-10-13T17:21:14;16.20;99.90
18998;DHT22;9632;51.018;4.284;2022-10-13T17:23:40;16.30;99.90
18998;DHT22;9632;51.018;4.284;2022-10-13T17:26:08;16.20;99.90
18998;DHT22;9632;51.018;4.284;2022-10-13T17:28:35;16.20;99.90